PAKT/KTN METAR and TAF weather

Enter ICAO airport designator
Station Type Date Time Source
PAKT METAR 2022/06/28 10:01 UTC NOAA

PAKT 281001Z AUTO 15004KT 2 1/2SM BR BKN002 13/13 A2984 RMK AO2 T01330133 TSNO


Station Type Date Time Source
PAKT Decoded METAR 2022/06/28 10:01 UTC NOAA

KETCHIKAN INTERNATIONAL AIRPORT , AK, United States (PAKT) 55-21N 131-43W 25M
Jun 28, 2022 - 06:01 AM EDT / 2022.06.28 1001 UTC
Wind: from the SSE (150 degrees) at 5 MPH (4 KT):0
Visibility: 2 1/2 mile(s):0
Sky conditions: mostly cloudy
Weather: mist
Temperature: 55.9 F (13.3 C)
Dew Point: 55.9 F (13.3 C)
Relative Humidity: 100%
Pressure (altimeter): 29.84 in. Hg (1010 hPa)
ob: PAKT 281001Z AUTO 15004KT 2 1/2SM BR BKN002 13/13 A2984 RMK AO2 T01330133 TSNO
cycle: 10

Station Type Date Time Source
PAKT TAF 2022/06/28 06:48 UTC NOAA

TAF PAKT 280547Z 2806/2906 31010KT P6SM SKC
FM281000 00000KT 1SM BR BKN005
FM281700 31010KT P6SM SKC
AMD LTD TO CLD VIS AND WIND 2806/2815

Example: see airport list